Time;durP1;ratioP1;P1;durP2;ratioP2;P2;SDS_P1;SDS_P2;PMS_P1;PMS_P2;Temp;Humidity;BMP_temperature;BMP_pressure;BME280_temperature;BME280_humidity;BME280_pressure;Samples;Min_cycle;Max_cycle;Signal;HPM_P1;HPM_P2
2021/12/14 00:01:36;;;;;;;14.40;10.40;;;8.60;99.90;;;;;;4985430;28;20529;-84
2021/12/14 00:04:08;;;;;;;14.70;10.73;;;8.60;99.90;;;;;;5004691;28;20540;-84
2021/12/14 00:06:34;;;;;;;14.15;10.70;;;8.60;99.90;;;;;;5026579;28;20441;-84
2021/12/14 00:09:02;;;;;;;15.32;10.95;;;8.50;99.90;;;;;;4998637;28;20056;-84
2021/12/14 00:16:54;;;;;;;18.48;11.57;;;8.60;99.90;;;;;;4999768;28;20049;-85
2021/12/14 00:19:20;;;;;;;17.40;12.52;;;8.50;99.90;;;;;;4982698;28;20078;-85
2021/12/14 00:21:53;;;;;;;15.63;12.75;;;8.60;99.90;;;;;;4985999;28;20421;-84
2021/12/14 00:24:21;;;;;;;21.90;12.90;;;8.60;99.90;;;;;;4988197;28;20602;-84
2021/12/14 00:26:52;;;;;;;16.65;12.57;;;8.60;99.90;;;;;;4970145;28;20709;-84
2021/12/14 00:29:52;;;;;;;16.35;12.75;;;8.60;99.90;;;;;;4985626;28;20221;-84
2021/12/14 00:32:21;;;;;;;18.27;13.10;;;8.60;99.90;;;;;;5006150;28;20741;-84
2021/12/14 00:34:51;;;;;;;17.08;12.93;;;8.60;99.90;;;;;;4993108;28;20066;-84
2021/12/14 00:37:24;;;;;;;15.07;12.10;;;8.60;99.90;;;;;;4985935;28;20805;-84
2021/12/14 00:39:53;;;;;;;18.65;13.73;;;8.60;99.90;;;;;;4984737;28;20125;-83
2021/12/14 00:42:21;;;;;;;17.23;12.98;;;8.60;99.90;;;;;;4987150;28;20067;-84
2021/12/14 00:44:50;;;;;;;18.13;12.68;;;8.60;99.90;;;;;;4998917;28;20055;-84
2021/12/14 00:47:16;;;;;;;17.33;12.80;;;8.60;99.90;;;;;;4986700;28;20285;-84
2021/12/14 00:49:42;;;;;;;17.75;13.23;;;8.60;99.90;;;;;;4966298;28;20571;-83
2021/12/14 00:52:09;;;;;;;18.38;13.80;;;8.60;99.90;;;;;;4986097;28;20397;-84
2021/12/14 00:54:37;;;;;;;18.55;13.48;;;8.60;99.90;;;;;;4958511;28;20497;-84
2021/12/14 00:57:06;;;;;;;16.75;12.93;;;8.60;99.90;;;;;;4985279;28;20078;-85
2021/12/14 00:59:33;;;;;;;17.38;13.57;;;8.60;99.90;;;;;;4970787;28;20052;-84
2021/12/14 01:02:13;;;;;;;17.90;12.80;;;8.60;99.90;;;;;;4999518;28;20669;-84
2021/12/14 01:04:45;;;;;;;17.73;13.05;;;8.60;99.90;;;;;;4980134;28;20170;-85
2021/12/14 01:07:15;;;;;;;16.23;13.05;;;8.60;99.90;;;;;;4986763;28;20061;-85
2021/12/14 01:09:44;;;;;;;20.15;13.95;;;8.60;99.90;;;;;;5008146;28;20048;-85
2021/12/14 01:12:19;;;;;;;18.25;13.60;;;8.50;99.90;;;;;;4989560;28;20048;-83
2021/12/14 01:14:59;;;;;;;19.13;13.75;;;8.50;99.90;;;;;;5003033;28;20105;-85
2021/12/14 01:17:41;;;;;;;19.42;14.15;;;8.50;99.90;;;;;;5014508;28;20569;-84
2021/12/14 01:20:11;;;;;;;18.10;13.38;;;8.50;99.90;;;;;;5006639;28;20542;-84
2021/12/14 01:25:17;;;;;;;18.73;13.30;;;8.50;99.90;;;;;;5004541;28;20051;-85
2021/12/14 01:27:58;;;;;;;18.25;13.98;;;8.50;99.90;;;;;;5010342;28;20512;-84
2021/12/14 01:30:37;;;;;;;17.70;13.80;;;8.50;99.90;;;;;;5007954;28;20459;-84
2021/12/14 01:33:06;;;;;;;20.23;14.32;;;8.50;99.90;;;;;;5007574;28;20123;-83
2021/12/14 01:35:38;;;;;;;17.10;13.52;;;8.50;99.90;;;;;;5025405;28;20059;-86
2021/12/14 01:40:58;;;;;;;18.30;13.50;;;8.50;99.90;;;;;;5000555;28;20903;-84
2021/12/14 01:43:45;;;;;;;17.77;14.07;;;8.50;99.90;;;;;;5002985;28;20617;-85
2021/12/14 01:46:22;;;;;;;18.65;13.65;;;8.50;99.90;;;;;;5004758;28;20048;-85
2021/12/14 01:48:49;;;;;;;18.80;14.48;;;8.50;99.90;;;;;;5001288;28;20100;-84
2021/12/14 01:51:16;;;;;;;19.52;14.07;;;8.50;99.90;;;;;;5000391;28;20439;-84
2021/12/14 01:53:46;;;;;;;17.90;13.95;;;8.50;99.90;;;;;;4990576;28;20309;-85
2021/12/14 01:56:18;;;;;;;19.48;14.75;;;8.40;99.90;;;;;;5007205;28;20805;-85
2021/12/14 01:58:48;;;;;;;20.15;15.00;;;8.50;99.90;;;;;;5000629;28;20501;-84
2021/12/14 02:01:25;;;;;;;22.02;15.55;;;8.40;99.90;;;;;;5001713;28;20166;-85
2021/12/14 02:04:09;;;;;;;20.42;14.52;;;8.40;99.90;;;;;;5022833;28;20118;-85
2021/12/14 02:06:35;;;;;;;21.60;15.35;;;8.40;99.90;;;;;;5002160;28;20172;-85
2021/12/14 02:09:11;;;;;;;20.40;16.23;;;8.40;99.90;;;;;;4977475;28;20487;-84
2021/12/14 02:11:51;;;;;;;21.67;16.10;;;8.40;99.90;;;;;;5002663;28;20818;-85
2021/12/14 02:14:19;;;;;;;22.98;16.15;;;8.40;99.90;;;;;;4995679;28;20589;-84
2021/12/14 02:16:49;;;;;;;24.25;16.83;;;8.40;99.90;;;;;;5004515;28;20044;-85
2021/12/14 02:19:16;;;;;;;24.35;16.80;;;8.50;99.90;;;;;;5006953;28;20527;-84
2021/12/14 02:21:46;;;;;;;23.30;16.88;;;8.50;99.90;;;;;;4981690;28;20466;-84
2021/12/14 02:24:14;;;;;;;22.83;16.90;;;8.50;99.90;;;;;;5004163;28;20051;-85
2021/12/14 02:26:42;;;;;;;23.13;17.00;;;8.50;99.90;;;;;;4998771;28;20200;-85
2021/12/14 02:29:18;;;;;;;23.17;17.33;;;8.50;99.90;;;;;;4998844;28;20056;-83
2021/12/14 02:31:45;;;;;;;22.85;17.38;;;8.50;99.90;;;;;;5013663;28;20801;-84
2021/12/14 02:34:11;;;;;;;23.20;16.92;;;8.50;99.90;;;;;;5005230;28;20261;-84
2021/12/14 02:36:41;;;;;;;22.60;16.85;;;8.50;99.90;;;;;;5002171;28;20410;-84
2021/12/14 02:39:23;;;;;;;24.25;18.35;;;8.50;99.90;;;;;;4999920;28;20289;-84
2021/12/14 02:41:54;;;;;;;23.05;18.13;;;8.50;99.90;;;;;;5024775;28;20070;-83
2021/12/14 02:44:21;;;;;;;25.27;18.70;;;8.50;99.90;;;;;;5001278;28;20059;-84
2021/12/14 02:46:58;;;;;;;26.48;18.52;;;8.50;99.90;;;;;;5002720;28;20051;-84
2021/12/14 02:49:28;;;;;;;23.70;18.60;;;8.50;99.90;;;;;;5001357;28;20047;-83
2021/12/14 02:51:59;;;;;;;26.33;19.75;;;8.50;99.90;;;;;;5000989;28;20040;-84
2021/12/14 02:54:29;;;;;;;26.90;20.05;;;8.40;99.90;;;;;;5023469;28;20054;-84
2021/12/14 02:57:16;;;;;;;25.13;19.35;;;8.50;99.90;;;;;;4981874;28;20074;-84
2021/12/14 02:59:47;;;;;;;28.15;20.52;;;8.50;99.90;;;;;;4995432;28;20860;-85
2021/12/14 03:02:17;;;;;;;29.90;21.25;;;8.50;99.90;;;;;;4968004;28;20043;-84
2021/12/14 03:04:50;;;;;;;30.38;21.85;;;8.50;99.90;;;;;;4996616;28;20183;-84
2021/12/14 03:07:18;;;;;;;27.83;21.67;;;8.50;99.90;;;;;;5003367;28;20051;-85
2021/12/14 03:12:53;;;;;;;30.98;22.45;;;8.50;99.90;;;;;;4977872;28;20051;-84
2021/12/14 03:15:27;;;;;;;27.88;21.17;;;8.50;99.90;;;;;;5003234;28;20126;-83
2021/12/14 03:17:57;;;;;;;32.35;23.25;;;8.50;99.90;;;;;;5002231;28;20051;-84
2021/12/14 03:20:28;;;;;;;29.15;21.85;;;8.50;99.90;;;;;;4978990;28;20508;-84
2021/12/14 03:23:09;;;;;;;28.38;22.63;;;8.50;99.90;;;;;;5003479;28;20706;-85
2021/12/14 03:25:38;;;;;;;30.50;22.50;;;8.50;99.90;;;;;;5006109;28;20044;-83
2021/12/14 03:28:05;;;;;;;33.00;24.27;;;8.50;99.90;;;;;;5005318;28;21098;-83
2021/12/14 03:30:34;;;;;;;34.47;23.63;;;8.50;99.90;;;;;;4984195;28;20230;-84
2021/12/14 03:33:05;;;;;;;32.80;23.92;;;8.40;99.90;;;;;;5001738;28;20058;-84
2021/12/14 03:35:47;;;;;;;31.05;23.17;;;8.50;99.90;;;;;;4985352;28;20047;-83
2021/12/14 03:38:22;;;;;;;31.95;23.95;;;8.50;99.90;;;;;;4985451;28;20071;-84
2021/12/14 03:41:03;;;;;;;30.42;23.30;;;8.50;99.90;;;;;;5018882;28;20052;-83
2021/12/14 03:43:29;;;;;;;29.67;22.58;;;8.50;99.90;;;;;;4982308;28;20059;-84
2021/12/14 03:45:57;;;;;;;32.05;23.35;;;8.50;99.90;;;;;;4983229;28;20048;-83
2021/12/14 03:48:26;;;;;;;32.35;23.60;;;8.50;99.90;;;;;;5005300;28;20046;-84
2021/12/14 03:50:52;;;;;;;34.38;24.23;;;8.40;99.90;;;;;;5000863;28;20773;-83
2021/12/14 03:53:20;;;;;;;32.85;25.15;;;8.50;99.90;;;;;;4979379;28;20043;-86
2021/12/14 03:55:52;;;;;;;36.38;24.17;;;8.50;99.90;;;;;;5003883;28;20098;-83
2021/12/14 03:58:23;;;;;;;34.28;24.85;;;8.50;99.90;;;;;;5002366;28;20062;-83
2021/12/14 04:00:58;;;;;;;33.22;25.02;;;8.50;99.90;;;;;;4999221;28;20040;-84
2021/12/14 04:03:27;;;;;;;33.55;25.67;;;8.50;99.90;;;;;;5001427;28;20047;-83
2021/12/14 04:05:54;;;;;;;35.58;24.95;;;8.50;99.90;;;;;;5003586;28;20150;-85
2021/12/14 04:08:22;;;;;;;35.22;25.80;;;8.40;99.90;;;;;;5004879;28;20825;-84
2021/12/14 04:10:49;;;;;;;35.33;25.30;;;8.40;99.90;;;;;;4983600;28;20043;-85
2021/12/14 04:13:32;;;;;;;34.30;25.77;;;8.40;99.90;;;;;;5006158;28;20093;-84
2021/12/14 04:15:58;;;;;;;35.38;26.30;;;8.40;99.90;;;;;;5001545;28;20056;-84
2021/12/14 04:18:26;;;;;;;34.65;25.80;;;8.40;99.90;;;;;;5000279;28;20048;-84
2021/12/14 04:20:55;;;;;;;36.40;26.23;;;8.40;99.90;;;;;;5014717;28;20040;-84
2021/12/14 04:23:25;;;;;;;37.88;26.80;;;8.40;99.90;;;;;;4985172;28;20588;-84
2021/12/14 04:25:55;;;;;;;36.38;26.10;;;8.40;99.90;;;;;;4999387;28;20786;-84
2021/12/14 04:28:24;;;;;;;36.42;26.33;;;8.40;99.90;;;;;;5003108;28;20352;-84
2021/12/14 04:30:50;;;;;;;36.45;27.17;;;8.40;99.90;;;;;;5001419;28;20562;-85
2021/12/14 04:33:23;;;;;;;38.30;27.33;;;8.40;99.90;;;;;;5002782;28;20047;-84
2021/12/14 04:35:50;;;;;;;36.97;27.05;;;8.40;99.90;;;;;;5007054;28;20369;-83
2021/12/14 04:38:22;;;;;;;39.85;28.15;;;8.40;99.90;;;;;;4984618;28;21425;-84
2021/12/14 04:52:05;;;;;;;39.10;28.33;;;8.40;99.90;;;;;;4999348;28;20794;-84
2021/12/14 04:54:48;;;;;;;39.15;28.38;;;8.40;99.90;;;;;;5006624;28;20497;-84
2021/12/14 04:57:36;;;;;;;41.83;29.73;;;8.40;99.90;;;;;;4997509;28;20051;-84
2021/12/14 05:00:31;;;;;;;39.17;28.00;;;8.40;99.90;;;;;;5001522;28;20092;-84
2021/12/14 05:02:59;;;;;;;39.85;29.27;;;8.40;99.90;;;;;;4982884;28;20505;-84
2021/12/14 05:05:30;;;;;;;43.33;28.70;;;8.40;99.90;;;;;;5000211;28;20533;-85
2021/12/14 05:10:41;;;;;;;39.53;28.92;;;8.30;99.90;;;;;;5008607;28;20059;-84
2021/12/14 05:13:08;;;;;;;40.17;28.60;;;8.40;99.90;;;;;;5024118;28;20036;-84
2021/12/14 05:15:41;;;;;;;42.55;30.33;;;8.20;99.90;;;;;;5003566;28;20066;-84
2021/12/14 05:18:14;;;;;;;41.75;30.52;;;8.30;99.90;;;;;;4992826;28;20507;-84
2021/12/14 05:20:42;;;;;;;42.45;31.17;;;8.20;99.90;;;;;;5003791;28;20530;-84
2021/12/14 05:23:08;;;;;;;41.65;30.42;;;8.20;99.90;;;;;;5003116;28;20511;-83
2021/12/14 05:25:37;;;;;;;43.28;29.92;;;8.20;99.90;;;;;;5003109;28;20526;-84
2021/12/14 05:28:08;;;;;;;45.13;31.10;;;8.30;99.90;;;;;;4986855;28;20389;-83
2021/12/14 05:30:42;;;;;;;43.10;31.23;;;8.20;99.90;;;;;;4986362;28;20055;-84
2021/12/14 05:33:19;;;;;;;44.35;31.52;;;8.20;99.90;;;;;;5007244;28;20043;-84
2021/12/14 05:35:47;;;;;;;44.72;31.15;;;8.20;99.90;;;;;;5008196;28;20047;-84
2021/12/14 05:38:19;;;;;;;45.08;32.05;;;8.10;99.90;;;;;;5006413;28;20046;-85
2021/12/14 05:43:29;;;;;;;50.00;33.42;;;8.20;99.90;;;;;;4992157;28;20429;-84
2021/12/14 05:46:01;;;;;;;46.53;33.50;;;8.20;99.90;;;;;;5000977;28;20324;-84
2021/12/14 05:48:35;;;;;;;49.30;34.92;;;8.20;99.90;;;;;;4998320;28;20267;-84
2021/12/14 05:51:06;;;;;;;;;;;8.20;99.90;;;;;;5004061;28;20039;-84
2021/12/14 05:53:36;;;;;;;49.78;34.78;;;8.20;99.90;;;;;;4978384;28;20278;-83
2021/12/14 05:56:09;;;;;;;49.65;35.15;;;8.30;99.90;;;;;;5018264;28;21330;-84
2021/12/14 05:58:35;;;;;;;49.28;34.67;;;8.30;99.90;;;;;;4985410;28;20133;-84
2021/12/14 06:01:06;;;;;;;51.70;36.05;;;8.30;99.90;;;;;;4984278;28;20040;-83
2021/12/14 06:03:38;;;;;;;52.15;35.72;;;8.30;99.90;;;;;;5004203;28;20052;-84
2021/12/14 06:06:04;;;;;;;53.50;37.08;;;8.30;99.90;;;;;;5019845;28;20130;-84
2021/12/14 06:08:33;;;;;;;50.88;35.85;;;8.30;99.90;;;;;;4986793;28;20442;-83
2021/12/14 06:11:00;;;;;;;50.40;35.90;;;8.30;99.90;;;;;;5004289;28;20548;-83
2021/12/14 06:13:41;;;;;;;54.05;35.88;;;8.40;99.90;;;;;;5025478;28;20597;-84
2021/12/14 06:16:08;;;;;;;51.50;36.67;;;8.40;99.90;;;;;;5012087;28;20409;-84
2021/12/14 06:18:34;;;;;;;53.67;37.55;;;8.40;99.90;;;;;;4976348;28;20741;-83
2021/12/14 06:21:00;;;;;;;51.25;36.22;;;8.40;99.90;;;;;;4996021;28;20272;-83
2021/12/14 06:23:30;;;;;;;53.78;37.15;;;8.30;99.90;;;;;;4996440;28;20553;-83
2021/12/14 06:25:57;;;;;;;52.10;36.85;;;8.40;99.90;;;;;;4986718;28;20125;-84
2021/12/14 06:28:28;;;;;;;54.47;38.63;;;8.30;99.90;;;;;;5001526;28;20070;-84
2021/12/14 06:30:56;;;;;;;54.08;37.38;;;8.40;99.90;;;;;;5002912;28;20269;-83
2021/12/14 06:33:22;;;;;;;56.17;36.95;;;8.40;99.90;;;;;;5001436;28;20134;-83
2021/12/14 06:35:51;;;;;;;59.15;39.20;;;8.40;99.90;;;;;;5020922;28;20047;-84
2021/12/14 06:38:28;;;;;;;58.42;40.22;;;8.40;99.90;;;;;;5004459;28;20079;-83
2021/12/14 06:41:09;;;;;;;57.83;39.78;;;8.40;99.90;;;;;;4998275;28;20429;-83
2021/12/14 06:43:49;;;;;;;62.17;40.00;;;8.40;99.90;;;;;;5003168;28;20834;-82
2021/12/14 06:46:24;;;;;;;59.88;40.38;;;8.40;99.90;;;;;;5001478;28;20040;-83
2021/12/14 06:48:53;;;;;;;60.65;40.47;;;8.40;99.90;;;;;;5021607;28;20373;-83
2021/12/14 06:51:33;;;;;;;61.88;40.17;;;8.40;99.90;;;;;;4981501;28;20414;-83
2021/12/14 06:54:04;;;;;;;63.17;41.75;;;8.40;99.90;;;;;;5000456;28;20050;-83
2021/12/14 06:56:32;;;;;;;64.43;39.95;;;8.30;99.90;;;;;;5002452;28;20056;-83
2021/12/14 06:59:04;;;;;;;63.45;39.83;;;8.30;99.90;;;;;;4996919;28;20054;-83
2021/12/14 07:01:37;;;;;;;59.58;39.30;;;8.20;99.90;;;;;;4998833;28;20067;-84
2021/12/14 07:04:06;;;;;;;61.13;40.43;;;8.10;99.90;;;;;;4999143;28;20408;-83
2021/12/14 07:06:36;;;;;;;64.00;39.85;;;8.10;99.90;;;;;;5012773;28;20301;-84
2021/12/14 07:09:15;;;;;;;66.75;41.85;;;8.00;99.90;;;;;;5005803;28;20051;-83
2021/12/14 07:11:45;;;;;;;67.65;42.22;;;8.10;99.90;;;;;;5009296;28;20526;-84
2021/12/14 07:14:27;;;;;;;70.60;42.95;;;8.00;99.90;;;;;;5003748;28;20100;-83
2021/12/14 07:16:57;;;;;;;71.20;41.60;;;8.00;99.90;;;;;;5011186;28;20051;-83
2021/12/14 07:19:53;;;;;;;77.07;43.83;;;8.10;99.90;;;;;;5004555;28;20048;-84
2021/12/14 07:22:31;;;;;;;76.20;42.92;;;8.20;99.90;;;;;;5005304;28;20548;-83
2021/12/14 07:25:03;;;;;;;81.20;45.13;;;8.10;99.90;;;;;;4983844;28;20043;-83
2021/12/14 07:27:31;;;;;;;76.82;44.17;;;8.20;99.90;;;;;;5006753;28;20921;-84
2021/12/14 07:30:24;;;;;;;83.10;44.40;;;8.20;99.90;;;;;;4998267;28;20058;-83
2021/12/14 07:32:58;;;;;;;84.55;45.30;;;8.20;99.90;;;;;;5021141;28;20154;-83
2021/12/14 07:35:39;;;;;;;79.10;44.03;;;8.20;99.90;;;;;;5009069;28;20780;-83
2021/12/14 07:38:17;;;;;;;82.07;44.60;;;8.30;99.90;;;;;;5004668;28;20051;-82
2021/12/14 07:40:47;;;;;;;86.00;45.63;;;8.30;99.90;;;;;;5002795;28;20257;-83
2021/12/14 07:43:23;;;;;;;83.95;45.65;;;8.30;99.90;;;;;;5006812;28;20105;-83
2021/12/14 07:45:51;;;;;;;84.97;45.83;;;8.20;99.90;;;;;;5005217;28;20055;-83
2021/12/14 07:48:18;;;;;;;87.72;46.58;;;8.30;99.90;;;;;;5020431;28;20043;-83
2021/12/14 07:50:53;;;;;;;83.68;45.65;;;8.30;99.90;;;;;;4982070;28;20056;-84
2021/12/14 07:53:40;;;;;;;82.53;45.55;;;8.30;99.90;;;;;;5001984;28;20526;-83
2021/12/14 07:56:08;;;;;;;77.43;45.45;;;8.30;99.90;;;;;;5010080;28;20529;-85
2021/12/14 07:58:44;;;;;;;80.20;45.42;;;8.30;99.90;;;;;;5004939;28;20607;-84
2021/12/14 08:01:10;;;;;;;80.47;45.30;;;8.30;99.90;;;;;;4992219;28;20352;-83
2021/12/14 08:03:37;;;;;;;80.88;44.97;;;8.30;99.90;;;;;;5003141;28;20040;-83
2021/12/14 08:06:14;;;;;;;79.18;45.83;;;8.40;99.90;;;;;;4989049;28;20562;-85
2021/12/14 08:08:53;;;;;;;86.25;47.05;;;8.40;99.90;;;;;;5004870;28;20094;-84
2021/12/14 08:14:12;;;;;;;76.57;44.63;;;8.40;99.90;;;;;;5004729;28;20059;-84
2021/12/14 08:16:43;;;;;;;76.22;44.95;;;8.40;99.90;;;;;;4971473;28;20051;-84
2021/12/14 08:19:27;;;;;;;75.05;44.75;;;8.40;99.90;;;;;;4979994;28;20247;-84
2021/12/14 08:21:55;;;;;;;78.13;45.83;;;8.40;99.90;;;;;;4985150;28;20133;-81
2021/12/14 08:24:21;;;;;;;76.20;44.75;;;8.40;99.90;;;;;;4984782;28;20048;-84
2021/12/14 08:26:58;;;;;;;73.82;45.05;;;8.40;99.90;;;;;;4987007;28;20105;-82
2021/12/14 08:29:27;;;;;;;79.05;45.45;;;8.50;99.90;;;;;;4980929;28;20131;-83
2021/12/14 08:31:55;;;;;;;80.18;46.40;;;8.50;99.90;;;;;;4994807;28;20089;-84
2021/12/14 08:34:27;;;;;;;75.45;44.67;;;8.50;99.90;;;;;;4994181;28;20894;-84
2021/12/14 08:37:04;;;;;;;75.68;45.10;;;8.50;99.90;;;;;;4986443;28;20051;-82
2021/12/14 08:39:39;;;;;;;73.50;44.83;;;8.60;99.90;;;;;;4972782;28;20044;-84
2021/12/14 08:42:21;;;;;;;78.32;44.88;;;8.60;99.90;;;;;;4985933;28;20678;-83
2021/12/14 08:44:53;;;;;;;74.13;45.20;;;8.70;99.90;;;;;;4985498;28;20085;-84
2021/12/14 08:47:25;;;;;;;76.15;45.45;;;8.70;99.90;;;;;;4978802;28;20438;-83
2021/12/14 08:49:53;;;;;;;79.53;45.53;;;8.70;99.90;;;;;;4990524;28;20148;-83
2021/12/14 08:52:19;;;;;;;76.82;44.25;;;8.70;99.90;;;;;;5012112;28;20052;-84
2021/12/14 08:54:45;;;;;;;84.70;45.83;;;8.80;99.90;;;;;;4971669;28;20044;-83
2021/12/14 08:57:16;;;;;;;79.57;45.47;;;8.70;99.90;;;;;;4987296;28;20044;-86
2021/12/14 08:59:48;;;;;;;78.28;44.50;;;8.70;99.90;;;;;;4985825;28;20079;-83
2021/12/14 09:02:16;;;;;;;80.70;46.67;;;8.80;99.90;;;;;;4984353;28;20501;-85
2021/12/14 09:04:48;;;;;;;80.78;45.13;;;8.80;99.90;;;;;;4981190;28;20839;-84
2021/12/14 09:07:27;;;;;;;78.90;44.20;;;8.80;99.90;;;;;;4990761;28;20044;-84
2021/12/14 09:09:55;;;;;;;69.13;43.60;;;8.80;99.90;;;;;;4981810;28;20050;-85
2021/12/14 09:12:36;;;;;;;69.80;43.20;;;8.70;99.90;;;;;;4987440;28;20573;-82
2021/12/14 09:15:15;;;;;;;73.18;44.55;;;8.70;99.90;;;;;;5009737;28;20047;-84
2021/12/14 09:17:42;;;;;;;70.95;43.30;;;8.80;99.90;;;;;;5005585;28;20051;-84
2021/12/14 09:20:13;;;;;;;70.00;44.10;;;8.80;99.90;;;;;;4979926;28;20162;-83
2021/12/14 09:22:44;;;;;;;70.93;43.05;;;8.80;99.90;;;;;;4999757;28;20043;-86
2021/12/14 09:25:16;;;;;;;69.75;42.80;;;8.90;99.90;;;;;;5005548;28;21035;-85
2021/12/14 09:27:42;;;;;;;69.25;43.80;;;8.80;99.90;;;;;;4986418;28;20146;-85
2021/12/14 09:30:12;;;;;;;70.40;42.90;;;8.90;99.90;;;;;;5008047;28;20131;-84
2021/12/14 09:32:38;;;;;;;73.00;43.10;;;9.00;99.90;;;;;;5011158;28;20491;-86
2021/12/14 09:35:08;;;;;;;65.93;42.75;;;9.00;99.90;;;;;;5009816;28;20842;-84
2021/12/14 09:37:35;;;;;;;68.13;41.75;;;9.00;99.90;;;;;;5013175;28;20303;-86
2021/12/14 09:40:10;;;;;;;63.35;41.03;;;8.90;99.90;;;;;;4983919;28;20161;-85
2021/12/14 09:42:36;;;;;;;69.65;42.83;;;9.00;99.90;;;;;;5027379;28;21888;-84
2021/12/14 09:45:10;;;;;;;67.28;42.00;;;9.00;99.90;;;;;;4979679;28;20269;-82
2021/12/14 09:47:36;;;;;;;;;;;8.90;99.90;;;;;;5024166;28;20055;-84
2021/12/14 09:50:10;;;;;;;64.45;43.25;;;8.90;99.90;;;;;;5013400;28;19930;-84
2021/12/14 09:52:39;;;;;;;64.50;41.75;;;9.00;99.90;;;;;;4987579;28;20043;-84
2021/12/14 09:55:12;;;;;;;66.72;42.35;;;9.00;99.90;;;;;;5006484;28;20602;-85
2021/12/14 09:57:41;;;;;;;62.97;42.10;;;9.00;99.90;;;;;;4992038;28;20522;-84
2021/12/14 10:00:22;;;;;;;64.30;41.55;;;9.10;99.90;;;;;;5011235;28;20705;-84
2021/12/14 10:02:51;;;;;;;64.32;41.88;;;9.10;99.90;;;;;;5014026;28;20078;-85
2021/12/14 10:05:25;;;;;;;59.42;40.40;;;9.10;99.90;;;;;;5011224;28;20539;-86
2021/12/14 10:07:54;;;;;;;60.55;39.30;;;9.10;99.90;;;;;;5007662;28;20840;-87
2021/12/14 10:10:21;;;;;;;63.72;40.92;;;9.20;99.90;;;;;;5005288;28;20058;-83
2021/12/14 10:12:52;;;;;;;61.80;39.75;;;9.10;99.90;;;;;;5006481;28;20058;-84
2021/12/14 10:15:40;;;;;;;62.25;41.33;;;9.10;99.90;;;;;;5021503;28;20055;-84
2021/12/14 10:18:15;;;;;;;56.05;39.53;;;9.20;99.90;;;;;;5004139;28;20066;-86
2021/12/14 10:21:03;;;;;;;57.95;39.83;;;9.10;99.90;;;;;;5010419;28;20051;-85
2021/12/14 10:23:30;;;;;;;64.40;41.28;;;9.10;99.90;;;;;;4988016;28;20705;-85
2021/12/14 10:25:57;;;;;;;60.25;40.45;;;9.10;99.90;;;;;;5008159;28;20393;-86
2021/12/14 10:28:25;;;;;;;55.92;39.15;;;9.20;99.90;;;;;;5006402;28;20488;-84
2021/12/14 10:30:56;;;;;;;59.60;40.45;;;9.20;99.90;;;;;;5012220;28;20276;-86
2021/12/14 10:33:24;;;;;;;58.85;39.38;;;9.20;99.90;;;;;;5003966;28;20051;-85
2021/12/14 10:36:00;;;;;;;57.92;39.55;;;9.10;99.90;;;;;;5005620;28;20047;-85
2021/12/14 10:38:31;;;;;;;59.53;40.42;;;9.10;99.90;;;;;;4990350;28;20050;-85
2021/12/14 10:43:48;;;;;;;56.70;39.10;;;9.20;99.90;;;;;;5004526;28;20756;-87
2021/12/14 10:46:22;;;;;;;60.13;39.28;;;9.20;99.90;;;;;;5004126;28;20503;-84
2021/12/14 10:48:48;;;;;;;;;;;9.20;99.90;;;;;;4984780;28;20464;-85
2021/12/14 10:51:18;;;;;;;58.70;38.38;;;9.10;99.90;;;;;;5007157;28;20329;-84
2021/12/14 10:53:47;;;;;;;60.55;39.13;;;9.20;99.90;;;;;;5006123;28;20424;-85
2021/12/14 10:56:18;;;;;;;63.80;40.72;;;9.20;99.90;;;;;;4990195;28;20050;-85
2021/12/14 10:58:46;;;;;;;59.40;40.40;;;9.20;99.90;;;;;;4995443;28;20850;-86
2021/12/14 11:01:16;;;;;;;58.33;39.20;;;9.20;99.90;;;;;;5001729;28;20143;-86
2021/12/14 11:03:47;;;;;;;59.83;40.67;;;9.20;99.90;;;;;;5000402;28;20155;-85
2021/12/14 11:06:17;;;;;;;59.85;39.75;;;9.20;99.90;;;;;;4979680;28;20059;-85
2021/12/14 11:08:56;;;;;;;57.75;39.67;;;9.20;99.90;;;;;;5001097;28;20040;-85
2021/12/14 11:11:36;;;;;;;60.78;39.53;;;9.20;99.90;;;;;;4978854;28;20195;-84
2021/12/14 11:14:07;;;;;;;62.03;39.58;;;9.20;99.90;;;;;;5010646;28;20050;-86
2021/12/14 11:19:51;;;;;;;;;;;9.20;99.90;;;;;;5017823;28;20088;-86
2021/12/14 11:22:52;;;;;;;62.47;40.00;;;9.30;99.90;;;;;;5007090;28;19923;-86
2021/12/14 11:25:23;;;;;;;62.58;40.75;;;9.30;99.90;;;;;;4978806;28;20052;-85
2021/12/14 11:28:09;;;;;;;64.70;41.72;;;9.30;99.90;;;;;;4977324;28;20918;-85
2021/12/14 11:30:39;;;;;;;60.42;39.17;;;9.30;99.90;;;;;;5023026;28;20070;-85
2021/12/14 11:33:17;;;;;;;66.07;42.05;;;9.30;99.90;;;;;;4996592;28;20055;-84
2021/12/14 11:35:54;;;;;;;66.95;40.90;;;9.30;99.90;;;;;;4989550;28;20039;-85
2021/12/14 11:38:35;;;;;;;71.45;41.58;;;9.30;99.90;;;;;;5002921;28;20081;-84
2021/12/14 11:41:29;;;;;;;77.57;42.85;;;9.30;99.90;;;;;;5007970;28;20051;-85
2021/12/14 11:44:18;;;;;;;77.03;43.83;;;9.30;99.90;;;;;;4983708;28;20059;-84
2021/12/14 11:46:56;;;;;;;81.90;44.50;;;9.20;99.90;;;;;;5002008;28;20463;-85
2021/12/14 11:49:39;;;;;;;85.38;44.05;;;9.30;99.90;;;;;;5020596;28;20067;-84
2021/12/14 11:52:05;;;;;;;88.53;44.58;;;9.30;99.90;;;;;;4988333;28;20040;-84
2021/12/14 11:54:43;;;;;;;93.90;45.67;;;9.30;99.90;;;;;;5025939;28;20035;-85
2021/12/14 11:57:09;;;;;;;90.75;45.08;;;9.30;99.90;;;;;;5010728;28;20581;-84
2021/12/14 11:59:35;;;;;;;83.72;43.97;;;9.30;99.90;;;;;;5003253;28;20128;-86
2021/12/14 12:02:04;;;;;;;86.97;45.90;;;9.30;99.90;;;;;;4982714;28;20118;-84
2021/12/14 12:04:35;;;;;;;88.68;44.53;;;9.30;99.90;;;;;;5006455;28;20109;-85
2021/12/14 12:09:42;;;;;;;89.20;44.55;;;9.30;99.90;;;;;;5008109;28;20126;-84
2021/12/14 12:12:23;;;;;;;90.18;45.00;;;9.30;99.90;;;;;;5006355;28;20572;-85
2021/12/14 12:14:57;;;;;;;91.22;44.35;;;9.30;99.90;;;;;;4990795;28;20412;-85
2021/12/14 12:17:35;;;;;;;;;;;9.30;99.90;;;;;;5000896;28;20835;-84
2021/12/14 12:20:07;;;;;;;89.05;43.55;;;9.30;99.90;;;;;;5007784;28;19977;-87
2021/12/14 12:22:40;;;;;;;96.40;45.78;;;9.30;99.90;;;;;;5000804;28;20039;-85
2021/12/14 12:25:17;;;;;;;95.25;45.13;;;9.30;99.90;;;;;;5015284;28;20051;-84
2021/12/14 12:27:51;;;;;;;92.07;44.97;;;9.30;99.90;;;;;;5008009;28;20047;-84
2021/12/14 12:30:37;;;;;;;94.85;43.15;;;9.30;99.90;;;;;;5009522;28;20604;-85
2021/12/14 12:33:30;;;;;;;91.05;42.95;;;9.30;99.90;;;;;;5003214;28;20051;-84
2021/12/14 12:36:10;;;;;;;87.50;43.17;;;9.30;99.90;;;;;;5010741;28;20492;-85
2021/12/14 12:39:00;;;;;;;84.25;42.55;;;9.30;99.90;;;;;;5034016;28;21451;-85
2021/12/14 12:41:49;;;;;;;84.65;42.65;;;9.30;99.90;;;;;;5014291;28;20079;-85
2021/12/14 12:44:17;;;;;;;87.90;42.30;;;9.30;99.90;;;;;;5007025;28;21006;-85
2021/12/14 12:46:57;;;;;;;86.40;41.53;;;9.30;99.90;;;;;;5008818;28;20058;-86
2021/12/14 12:49:24;;;;;;;85.82;41.47;;;9.30;99.90;;;;;;4991234;28;20296;-86
2021/12/14 12:52:05;;;;;;;80.55;39.78;;;9.30;99.90;;;;;;5005457;28;20044;-84
2021/12/14 12:54:45;;;;;;;84.90;39.75;;;9.30;99.90;;;;;;4997060;28;20048;-84
2021/12/14 12:57:28;;;;;;;83.88;40.03;;;9.30;99.90;;;;;;5007026;28;20059;-84
2021/12/14 13:00:17;;;;;;;79.22;38.60;;;9.40;99.90;;;;;;5006515;28;20852;-84
2021/12/14 13:03:00;;;;;;;79.60;38.65;;;9.30;99.90;;;;;;4992561;28;20066;-84
2021/12/14 13:05:44;;;;;;;74.68;38.20;;;9.30;99.90;;;;;;4995372;28;20403;-84
2021/12/14 13:08:33;;;;;;;77.43;36.85;;;9.30;99.90;;;;;;5008186;28;20581;-85
2021/12/14 13:11:21;;;;;;;69.97;36.38;;;9.40;99.90;;;;;;5003770;28;20058;-84
2021/12/14 13:13:48;;;;;;;66.20;35.90;;;9.40;99.90;;;;;;4994555;28;20078;-85
2021/12/14 13:16:16;;;;;;;69.32;35.47;;;9.40;99.90;;;;;;4990975;28;20520;-85
2021/12/14 13:18:47;;;;;;;63.22;34.60;;;9.40;99.90;;;;;;4990316;28;20055;-86
2021/12/14 13:21:31;;;;;;;64.15;33.47;;;9.40;99.90;;;;;;5009898;28;20044;-84
2021/12/14 13:24:00;;;;;;;58.10;32.03;;;9.40;99.90;;;;;;5003998;28;20083;-84
2021/12/14 13:27:00;;;;;;;57.17;30.73;;;9.40;99.90;;;;;;4985340;28;20075;-84
2021/12/14 13:29:26;;;;;;;56.63;30.30;;;9.40;99.90;;;;;;4985377;28;20062;-85
2021/12/14 13:32:07;;;;;;;60.67;31.58;;;9.40;99.90;;;;;;5003283;28;20044;-85
2021/12/14 13:34:36;;;;;;;53.42;30.35;;;9.40;99.90;;;;;;5002312;28;20044;-84
2021/12/14 13:37:04;;;;;;;57.35;30.33;;;9.40;99.90;;;;;;5003599;28;20587;-84
2021/12/14 13:39:30;;;;;;;54.03;29.52;;;9.40;99.90;;;;;;5011657;28;20085;-85
2021/12/14 13:41:59;;;;;;;52.05;29.02;;;9.40;99.90;;;;;;5007071;28;20777;-84
2021/12/14 13:44:27;;;;;;;57.10;30.55;;;9.40;99.90;;;;;;5021866;28;20825;-84
2021/12/14 13:46:54;;;;;;;54.47;29.75;;;9.40;99.90;;;;;;5007491;28;21297;-83
2021/12/14 13:49:20;;;;;;;52.83;30.35;;;9.40;99.90;;;;;;4988452;28;21141;-85